sensor_id;sensor_type;location;lat;lon;timestamp;pressure;altitude;pressure_sealevel;temperature;humidity
50368;BME280;36281;34.132;-118.018;2022-07-03T00:00:30;99669.09;;;31.21;33.12
50368;BME280;36281;34.132;-118.018;2022-07-03T00:02:59;99673.63;;;31.13;32.75
50368;BME280;36281;34.132;-118.018;2022-07-03T00:05:29;99672.72;;;30.94;33.34
50368;BME280;36281;34.132;-118.018;2022-07-03T00:07:58;99672.38;;;30.79;33.69
50368;BME280;36281;34.132;-118.018;2022-07-03T00:10:27;99659.75;;;30.75;33.82
50368;BME280;36281;34.132;-118.018;2022-07-03T00:12:56;99665.59;;;30.73;33.18
50368;BME280;36281;34.132;-118.018;2022-07-03T00:15:26;99660.50;;;30.59;33.91
50368;BME280;36281;34.132;-118.018;2022-07-03T00:17:55;99664.19;;;30.51;33.84
50368;BME280;36281;34.132;-118.018;2022-07-03T00:20:27;99660.22;;;30.49;34.66
50368;BME280;36281;34.132;-118.018;2022-07-03T00:23:01;99663.28;;;30.47;34.35
50368;BME280;36281;34.132;-118.018;2022-07-03T00:25:33;99661.44;;;30.35;33.96
50368;BME280;36281;34.132;-118.018;2022-07-03T00:28:02;99661.47;;;30.23;34.67
50368;BME280;36281;34.132;-118.018;2022-07-03T00:30:34;99664.00;;;30.16;34.38
50368;BME280;36281;34.132;-118.018;2022-07-03T00:33:04;99665.16;;;30.03;35.10
50368;BME280;36281;34.132;-118.018;2022-07-03T00:35:35;99662.69;;;29.98;35.14
50368;BME280;36281;34.132;-118.018;2022-07-03T00:38:06;99657.81;;;29.91;35.15
50368;BME280;36281;34.132;-118.018;2022-07-03T00:40:35;99662.13;;;29.92;34.86
50368;BME280;36281;34.132;-118.018;2022-07-03T00:43:06;99659.88;;;29.82;35.09
50368;BME280;36281;34.132;-118.018;2022-07-03T00:45:46;99651.75;;;29.70;35.38
50368;BME280;36281;34.132;-118.018;2022-07-03T00:48:17;99652.31;;;29.63;35.86
50368;BME280;36281;34.132;-118.018;2022-07-03T00:50:48;99661.44;;;29.55;36.14
50368;BME280;36281;34.132;-118.018;2022-07-03T00:53:22;99650.97;;;29.45;35.83
50368;BME280;36281;34.132;-118.018;2022-07-03T00:55:55;99661.06;;;29.44;36.30
50368;BME280;36281;34.132;-118.018;2022-07-03T00:58:24;99650.97;;;29.45;36.12
50368;BME280;36281;34.132;-118.018;2022-07-03T01:00:56;99646.72;;;29.47;36.23
50368;BME280;36281;34.132;-118.018;2022-07-03T01:03:27;99650.50;;;29.43;36.01
50368;BME280;36281;34.132;-118.018;2022-07-03T01:06:02;99651.28;;;29.43;36.16
50368;BME280;36281;34.132;-118.018;2022-07-03T01:08:33;99657.28;;;29.49;36.04
50368;BME280;36281;34.132;-118.018;2022-07-03T01:11:07;99656.09;;;29.34;36.04
50368;BME280;36281;34.132;-118.018;2022-07-03T01:13:46;99661.09;;;29.20;36.38
50368;BME280;36281;34.132;-118.018;2022-07-03T01:16:25;99665.06;;;29.10;36.77
50368;BME280;36281;34.132;-118.018;2022-07-03T01:19:00;99667.16;;;28.92;37.16
50368;BME280;36281;34.132;-118.018;2022-07-03T01:21:55;99663.88;;;28.87;37.69
50368;BME280;36281;34.132;-118.018;2022-07-03T01:24:48;99666.94;;;28.85;36.91
50368;BME280;36281;34.132;-118.018;2022-07-03T01:27:28;99669.09;;;28.79;36.70
50368;BME280;36281;34.132;-118.018;2022-07-03T01:30:03;99670.41;;;28.73;37.47
50368;BME280;36281;34.132;-118.018;2022-07-03T01:32:43;99670.41;;;28.61;37.58
50368;BME280;36281;34.132;-118.018;2022-07-03T01:35:13;99678.28;;;28.42;37.59
50368;BME280;36281;34.132;-118.018;2022-07-03T01:37:42;99678.50;;;28.37;37.88
50368;BME280;36281;34.132;-118.018;2022-07-03T01:40:12;99672.88;;;28.33;37.93
50368;BME280;36281;34.132;-118.018;2022-07-03T01:42:45;99677.28;;;28.25;37.77
50368;BME280;36281;34.132;-118.018;2022-07-03T01:45:15;99676.38;;;28.21;37.55
50368;BME280;36281;34.132;-118.018;2022-07-03T01:47:46;99665.69;;;28.16;38.05
50368;BME280;36281;34.132;-118.018;2022-07-03T01:50:16;99677.19;;;28.01;38.27
50368;BME280;36281;34.132;-118.018;2022-07-03T01:52:48;99681.41;;;27.90;38.84
50368;BME280;36281;34.132;-118.018;2022-07-03T01:55:19;99678.28;;;27.79;39.19
50368;BME280;36281;34.132;-118.018;2022-07-03T01:57:51;99678.34;;;27.70;39.01
50368;BME280;36281;34.132;-118.018;2022-07-03T02:00:22;99677.25;;;27.63;39.29
50368;BME280;36281;34.132;-118.018;2022-07-03T02:02:56;99688.66;;;27.56;39.55
50368;BME280;36281;34.132;-118.018;2022-07-03T02:05:41;99680.75;;;27.42;39.47
50368;BME280;36281;34.132;-118.018;2022-07-03T02:08:37;99679.72;;;27.26;39.75
50368;BME280;36281;34.132;-118.018;2022-07-03T02:11:14;99677.38;;;27.07;40.27
50368;BME280;36281;34.132;-118.018;2022-07-03T02:14:10;99680.25;;;27.02;40.66
50368;BME280;36281;34.132;-118.018;2022-07-03T02:16:53;99688.28;;;26.90;41.13
50368;BME280;36281;34.132;-118.018;2022-07-03T02:19:28;99684.94;;;26.84;41.29
50368;BME280;36281;34.132;-118.018;2022-07-03T02:22:00;99691.53;;;26.74;41.30
50368;BME280;36281;34.132;-118.018;2022-07-03T02:24:36;99688.03;;;26.65;41.71
50368;BME280;36281;34.132;-118.018;2022-07-03T02:27:16;99692.03;;;26.50;41.71
50368;BME280;36281;34.132;-118.018;2022-07-03T02:29:51;99688.41;;;26.46;42.15
50368;BME280;36281;34.132;-118.018;2022-07-03T02:32:26;99687.75;;;26.41;42.18
50368;BME280;36281;34.132;-118.018;2022-07-03T02:35:02;99684.69;;;26.34;42.31
50368;BME280;36281;34.132;-118.018;2022-07-03T02:37:33;99683.09;;;26.24;42.34
50368;BME280;36281;34.132;-118.018;2022-07-03T02:40:07;99689.50;;;26.11;42.50
50368;BME280;36281;34.132;-118.018;2022-07-03T02:42:42;99687.75;;;26.06;43.05
50368;BME280;36281;34.132;-118.018;2022-07-03T02:45:18;99689.50;;;26.02;43.21
50368;BME280;36281;34.132;-118.018;2022-07-03T02:47:55;99691.72;;;26.00;43.45
50368;BME280;36281;34.132;-118.018;2022-07-03T02:50:27;99684.06;;;25.93;43.23
50368;BME280;36281;34.132;-118.018;2022-07-03T02:53:04;99687.41;;;25.82;42.85
50368;BME280;36281;34.132;-118.018;2022-07-03T02:55:44;99684.47;;;25.69;43.56
50368;BME280;36281;34.132;-118.018;2022-07-03T02:58:55;99681.25;;;25.50;43.68
50368;BME280;36281;34.132;-118.018;2022-07-03T03:01:38;99682.81;;;25.34;43.71
50368;BME280;36281;34.132;-118.018;2022-07-03T03:04:21;99694.09;;;25.27;44.11
50368;BME280;36281;34.132;-118.018;2022-07-03T03:06:54;99691.03;;;25.20;44.15
50368;BME280;36281;34.132;-118.018;2022-07-03T03:09:27;99695.63;;;25.11;44.02
50368;BME280;36281;34.132;-118.018;2022-07-03T03:12:01;99693.47;;;24.99;44.55
50368;BME280;36281;34.132;-118.018;2022-07-03T03:14:37;99701.72;;;24.94;44.62
50368;BME280;36281;34.132;-118.018;2022-07-03T03:17:17;99707.91;;;24.86;45.04
50368;BME280;36281;34.132;-118.018;2022-07-03T03:19:51;99707.28;;;24.89;44.91
50368;BME280;36281;34.132;-118.018;2022-07-03T03:22:28;99709.66;;;24.82;44.43
50368;BME280;36281;34.132;-118.018;2022-07-03T03:25:01;99713.56;;;24.75;44.98
50368;BME280;36281;34.132;-118.018;2022-07-03T03:27:31;99714.81;;;24.69;44.02
50368;BME280;36281;34.132;-118.018;2022-07-03T03:30:00;99720.47;;;24.59;43.94
50368;BME280;36281;34.132;-118.018;2022-07-03T03:32:31;99725.03;;;24.50;43.96
50368;BME280;36281;34.132;-118.018;2022-07-03T03:35:03;99731.19;;;24.42;43.42
50368;BME280;36281;34.132;-118.018;2022-07-03T03:37:32;99737.53;;;24.23;43.66
50368;BME280;36281;34.132;-118.018;2022-07-03T03:40:03;99730.03;;;24.20;43.45
50368;BME280;36281;34.132;-118.018;2022-07-03T03:42:32;99730.44;;;24.14;43.51
50368;BME280;36281;34.132;-118.018;2022-07-03T03:45:01;99732.66;;;24.12;43.46
50368;BME280;36281;34.132;-118.018;2022-07-03T03:47:33;99734.97;;;24.05;43.73
50368;BME280;36281;34.132;-118.018;2022-07-03T03:50:02;99733.19;;;24.00;43.25
50368;BME280;36281;34.132;-118.018;2022-07-03T03:52:32;99739.22;;;23.97;43.96
50368;BME280;36281;34.132;-118.018;2022-07-03T03:55:04;99737.00;;;23.85;44.08
50368;BME280;36281;34.132;-118.018;2022-07-03T03:57:34;99744.13;;;23.81;44.16
50368;BME280;36281;34.132;-118.018;2022-07-03T04:00:03;99738.66;;;23.72;44.29
50368;BME280;36281;34.132;-118.018;2022-07-03T04:02:34;99741.47;;;23.67;44.64
50368;BME280;36281;34.132;-118.018;2022-07-03T04:05:04;99746.03;;;23.53;44.96
50368;BME280;36281;34.132;-118.018;2022-07-03T04:07:33;99743.63;;;23.38;45.46
50368;BME280;36281;34.132;-118.018;2022-07-03T04:10:03;99753.63;;;23.37;45.67
50368;BME280;36281;34.132;-118.018;2022-07-03T04:12:32;99739.31;;;23.23;45.57
50368;BME280;36281;34.132;-118.018;2022-07-03T04:15:01;99746.50;;;23.14;46.33
50368;BME280;36281;34.132;-118.018;2022-07-03T04:17:31;99755.00;;;23.21;45.96
50368;BME280;36281;34.132;-118.018;2022-07-03T04:20:02;99758.69;;;23.11;46.54
50368;BME280;36281;34.132;-118.018;2022-07-03T04:22:31;99763.00;;;23.12;46.94
50368;BME280;36281;34.132;-118.018;2022-07-03T04:25:00;99774.97;;;23.06;47.00
50368;BME280;36281;34.132;-118.018;2022-07-03T04:27:29;99772.75;;;22.94;47.61
50368;BME280;36281;34.132;-118.018;2022-07-03T04:30:19;99768.59;;;22.83;47.92
50368;BME280;36281;34.132;-118.018;2022-07-03T04:32:48;99772.75;;;22.76;48.38
50368;BME280;36281;34.132;-118.018;2022-07-03T04:35:19;99781.97;;;22.75;49.17
50368;BME280;36281;34.132;-118.018;2022-07-03T04:37:48;99783.25;;;22.77;49.16
50368;BME280;36281;34.132;-118.018;2022-07-03T04:40:17;99781.72;;;22.71;49.26
50368;BME280;36281;34.132;-118.018;2022-07-03T04:42:46;99786.34;;;22.70;49.33
50368;BME280;36281;34.132;-118.018;2022-07-03T04:45:15;99781.41;;;22.59;49.66
50368;BME280;36281;34.132;-118.018;2022-07-03T04:47:44;99789.84;;;22.52;50.00
50368;BME280;36281;34.132;-118.018;2022-07-03T04:50:13;99798.78;;;22.53;50.15
50368;BME280;36281;34.132;-118.018;2022-07-03T04:52:44;99805.63;;;22.45;50.25
50368;BME280;36281;34.132;-118.018;2022-07-03T04:55:13;99807.81;;;22.43;50.78
50368;BME280;36281;34.132;-118.018;2022-07-03T04:57:42;99811.66;;;22.37;50.66
50368;BME280;36281;34.132;-118.018;2022-07-03T05:00:11;99812.25;;;22.34;50.82
50368;BME280;36281;34.132;-118.018;2022-07-03T05:02:40;99806.94;;;22.29;51.27
50368;BME280;36281;34.132;-118.018;2022-07-03T05:05:09;99812.16;;;22.20;51.62
50368;BME280;36281;34.132;-118.018;2022-07-03T05:07:39;99809.81;;;22.13;51.61
50368;BME280;36281;34.132;-118.018;2022-07-03T05:10:09;99819.81;;;22.13;51.96
50368;BME280;36281;34.132;-118.018;2022-07-03T05:12:38;99813.88;;;22.11;51.99
50368;BME280;36281;34.132;-118.018;2022-07-03T05:15:09;99813.69;;;22.02;52.47
50368;BME280;36281;34.132;-118.018;2022-07-03T05:17:38;99818.59;;;22.00;52.29
50368;BME280;36281;34.132;-118.018;2022-07-03T05:20:09;99818.03;;;22.03;52.61
50368;BME280;36281;34.132;-118.018;2022-07-03T05:22:53;99824.09;;;21.90;52.81
50368;BME280;36281;34.132;-118.018;2022-07-03T05:25:25;99818.22;;;21.83;53.16
50368;BME280;36281;34.132;-118.018;2022-07-03T05:27:54;99818.53;;;21.81;53.13
50368;BME280;36281;34.132;-118.018;2022-07-03T05:30:24;99820.97;;;21.78;53.18
50368;BME280;36281;34.132;-118.018;2022-07-03T05:32:53;99827.22;;;21.78;53.35
50368;BME280;36281;34.132;-118.018;2022-07-03T05:35:23;99828.28;;;21.77;53.30
50368;BME280;36281;34.132;-118.018;2022-07-03T05:37:52;99822.72;;;21.68;53.38
50368;BME280;36281;34.132;-118.018;2022-07-03T05:40:21;99824.53;;;21.49;54.14
50368;BME280;36281;34.132;-118.018;2022-07-03T05:42:51;99831.78;;;21.54;54.36
50368;BME280;36281;34.132;-118.018;2022-07-03T05:45:21;99830.44;;;21.51;54.37
50368;BME280;36281;34.132;-118.018;2022-07-03T05:47:50;99839.91;;;21.49;54.65
50368;BME280;36281;34.132;-118.018;2022-07-03T05:50:19;99831.59;;;21.45;55.07
50368;BME280;36281;34.132;-118.018;2022-07-03T05:52:48;99836.72;;;21.41;55.03
50368;BME280;36281;34.132;-118.018;2022-07-03T05:55:18;99834.94;;;21.32;55.05
50368;BME280;36281;34.132;-118.018;2022-07-03T05:57:47;99828.97;;;21.35;55.09
50368;BME280;36281;34.132;-118.018;2022-07-03T06:00:17;99833.34;;;21.26;55.44
50368;BME280;36281;34.132;-118.018;2022-07-03T06:02:46;99822.66;;;21.15;55.79
50368;BME280;36281;34.132;-118.018;2022-07-03T06:05:15;99823.16;;;21.17;56.01
50368;BME280;36281;34.132;-118.018;2022-07-03T06:07:44;99827.03;;;21.06;56.47
50368;BME280;36281;34.132;-118.018;2022-07-03T06:10:13;99824.84;;;21.08;56.71
50368;BME280;36281;34.132;-118.018;2022-07-03T06:12:42;99824.06;;;21.08;56.99
50368;BME280;36281;34.132;-118.018;2022-07-03T06:15:11;99826.00;;;21.02;57.19
50368;BME280;36281;34.132;-118.018;2022-07-03T06:17:42;99821.75;;;20.96;57.74
50368;BME280;36281;34.132;-118.018;2022-07-03T06:20:12;99825.47;;;21.00;57.72
50368;BME280;36281;34.132;-118.018;2022-07-03T06:22:41;99809.50;;;20.80;58.13
50368;BME280;36281;34.132;-118.018;2022-07-03T06:25:12;99821.88;;;20.76;58.46
50368;BME280;36281;34.132;-118.018;2022-07-03T06:27:41;99817.81;;;20.78;58.45
50368;BME280;36281;34.132;-118.018;2022-07-03T06:30:11;99819.72;;;20.78;58.57
50368;BME280;36281;34.132;-118.018;2022-07-03T06:32:42;99826.75;;;20.74;58.84
50368;BME280;36281;34.132;-118.018;2022-07-03T06:35:11;99817.38;;;20.66;59.06
50368;BME280;36281;34.132;-118.018;2022-07-03T06:37:40;99817.84;;;20.73;58.90
50368;BME280;36281;34.132;-118.018;2022-07-03T06:40:10;99824.88;;;20.74;58.94
50368;BME280;36281;34.132;-118.018;2022-07-03T06:42:39;99825.38;;;20.76;58.97
50368;BME280;36281;34.132;-118.018;2022-07-03T06:45:08;99823.56;;;20.67;59.36
50368;BME280;36281;34.132;-118.018;2022-07-03T06:47:38;99832.47;;;20.62;59.39
50368;BME280;36281;34.132;-118.018;2022-07-03T06:50:09;99839.25;;;20.54;59.80
50368;BME280;36281;34.132;-118.018;2022-07-03T06:52:38;99837.38;;;20.55;60.03
50368;BME280;36281;34.132;-118.018;2022-07-03T06:55:08;99841.41;;;20.52;60.04
50368;BME280;36281;34.132;-118.018;2022-07-03T06:57:37;99839.38;;;20.29;60.86
50368;BME280;36281;34.132;-118.018;2022-07-03T07:00:07;99842.56;;;20.31;60.91
50368;BME280;36281;34.132;-118.018;2022-07-03T07:02:36;99840.16;;;20.29;61.01
50368;BME280;36281;34.132;-118.018;2022-07-03T07:05:05;99835.03;;;20.28;61.20
50368;BME280;36281;34.132;-118.018;2022-07-03T07:07:36;99834.50;;;20.31;61.39
50368;BME280;36281;34.132;-118.018;2022-07-03T07:10:06;99835.63;;;20.20;61.56
50368;BME280;36281;34.132;-118.018;2022-07-03T07:12:35;99844.00;;;20.08;62.17
50368;BME280;36281;34.132;-118.018;2022-07-03T07:15:06;99834.88;;;20.09;62.52
50368;BME280;36281;34.132;-118.018;2022-07-03T07:17:35;99846.72;;;20.03;62.80
50368;BME280;36281;34.132;-118.018;2022-07-03T07:20:05;99846.97;;;20.06;63.01
50368;BME280;36281;34.132;-118.018;2022-07-03T07:22:36;99845.69;;;19.88;63.52
50368;BME280;36281;34.132;-118.018;2022-07-03T07:25:06;99847.00;;;20.01;63.47
50368;BME280;36281;34.132;-118.018;2022-07-03T07:27:35;99851.84;;;19.99;63.62
50368;BME280;36281;34.132;-118.018;2022-07-03T07:30:04;99849.47;;;19.82;64.09
50368;BME280;36281;34.132;-118.018;2022-07-03T07:32:33;99850.81;;;19.80;64.60
50368;BME280;36281;34.132;-118.018;2022-07-03T07:35:03;99853.75;;;19.78;64.67
50368;BME280;36281;34.132;-118.018;2022-07-03T07:37:35;99851.13;;;19.63;65.17
50368;BME280;36281;34.132;-118.018;2022-07-03T07:40:05;99856.22;;;19.49;65.91
50368;BME280;36281;34.132;-118.018;2022-07-03T07:42:34;99848.44;;;19.43;66.01
50368;BME280;36281;34.132;-118.018;2022-07-03T07:45:03;99852.47;;;19.55;66.04
50368;BME280;36281;34.132;-118.018;2022-07-03T07:47:33;99849.78;;;19.66;65.76
50368;BME280;36281;34.132;-118.018;2022-07-03T07:50:02;99847.88;;;19.71;65.74
50368;BME280;36281;34.132;-118.018;2022-07-03T07:52:31;99849.22;;;19.74;65.72
50368;BME280;36281;34.132;-118.018;2022-07-03T07:55:02;99856.22;;;19.75;65.92
50368;BME280;36281;34.132;-118.018;2022-07-03T07:57:35;99850.84;;;19.75;65.93
50368;BME280;36281;34.132;-118.018;2022-07-03T08:00:06;99856.22;;;19.75;66.16
50368;BME280;36281;34.132;-118.018;2022-07-03T08:02:35;99850.03;;;19.79;65.82
50368;BME280;36281;34.132;-118.018;2022-07-03T08:05:23;99859.13;;;19.78;65.58
50368;BME280;36281;34.132;-118.018;2022-07-03T08:08:08;99849.22;;;19.74;65.86
50368;BME280;36281;34.132;-118.018;2022-07-03T08:10:41;99844.94;;;19.68;65.98
50368;BME280;36281;34.132;-118.018;2022-07-03T08:13:11;99843.31;;;19.67;66.49
50368;BME280;36281;34.132;-118.018;2022-07-03T08:15:41;99842.25;;;19.62;66.55
50368;BME280;36281;34.132;-118.018;2022-07-03T08:18:11;99834.47;;;19.61;66.50
50368;BME280;36281;34.132;-118.018;2022-07-03T08:20:40;99837.44;;;19.59;66.60
50368;BME280;36281;34.132;-118.018;2022-07-03T08:23:09;99844.66;;;19.44;67.25
50368;BME280;36281;34.132;-118.018;2022-07-03T08:25:39;99837.97;;;19.46;67.30
50368;BME280;36281;34.132;-118.018;2022-07-03T08:28:08;99838.75;;;19.47;67.24
50368;BME280;36281;34.132;-118.018;2022-07-03T08:30:37;99836.88;;;19.42;67.31
50368;BME280;36281;34.132;-118.018;2022-07-03T08:33:06;99837.97;;;19.41;67.54
50368;BME280;36281;34.132;-118.018;2022-07-03T08:35:35;99835.56;;;19.34;67.67
50368;BME280;36281;34.132;-118.018;2022-07-03T08:38:04;99836.09;;;19.31;67.63
50368;BME280;36281;34.132;-118.018;2022-07-03T08:40:34;99834.50;;;19.25;68.10
50368;BME280;36281;34.132;-118.018;2022-07-03T08:43:05;99840.66;;;19.26;67.93
50368;BME280;36281;34.132;-118.018;2022-07-03T08:45:35;99834.50;;;19.25;68.15
50368;BME280;36281;34.132;-118.018;2022-07-03T08:48:07;99832.88;;;19.19;68.52
50368;BME280;36281;34.132;-118.018;2022-07-03T08:50:39;99842.28;;;19.17;68.47
50368;BME280;36281;34.132;-118.018;2022-07-03T08:53:11;99832.34;;;19.12;68.84
50368;BME280;36281;34.132;-118.018;2022-07-03T08:55:40;99834.22;;;19.11;68.58
50368;BME280;36281;34.132;-118.018;2022-07-03T08:58:12;99834.50;;;19.10;68.45
50368;BME280;36281;34.132;-118.018;2022-07-03T09:00:43;99825.66;;;19.09;69.19
50368;BME280;36281;34.132;-118.018;2022-07-03T09:03:14;99836.63;;;19.08;69.53
50368;BME280;36281;34.132;-118.018;2022-07-03T09:05:44;99835.81;;;18.92;69.68
50368;BME280;36281;34.132;-118.018;2022-07-03T09:08:15;99829.38;;;18.83;69.66
50368;BME280;36281;34.132;-118.018;2022-07-03T09:10:45;99834.22;;;18.86;69.58
50368;BME280;36281;34.132;-118.018;2022-07-03T09:13:16;99837.97;;;18.90;69.51
50368;BME280;36281;34.132;-118.018;2022-07-03T09:15:45;99841.47;;;18.80;70.18
50368;BME280;36281;34.132;-118.018;2022-07-03T09:18:14;99837.16;;;18.84;70.25
50368;BME280;36281;34.132;-118.018;2022-07-03T09:20:43;99831.78;;;18.84;70.69
50368;BME280;36281;34.132;-118.018;2022-07-03T09:23:14;99829.66;;;18.81;70.92
50368;BME280;36281;34.132;-118.018;2022-07-03T09:25:57;99834.75;;;18.83;71.04
50368;BME280;36281;34.132;-118.018;2022-07-03T09:31:23;99830.97;;;18.79;70.90
50368;BME280;36281;34.132;-118.018;2022-07-03T09:33:57;99832.31;;;18.76;71.14
50368;BME280;36281;34.132;-118.018;2022-07-03T09:36:43;99831.75;;;18.74;71.14
50368;BME280;36281;34.132;-118.018;2022-07-03T09:39:17;99832.78;;;18.58;71.68
50368;BME280;36281;34.132;-118.018;2022-07-03T09:41:55;99844.56;;;18.47;72.30
50368;BME280;36281;34.132;-118.018;2022-07-03T09:44:32;99837.84;;;18.49;72.25
50368;BME280;36281;34.132;-118.018;2022-07-03T09:47:13;99831.16;;;18.52;72.30
50368;BME280;36281;34.132;-118.018;2022-07-03T09:49:47;99835.19;;;18.54;72.20
50368;BME280;36281;34.132;-118.018;2022-07-03T09:52:34;99843.19;;;18.34;73.04
50368;BME280;36281;34.132;-118.018;2022-07-03T09:55:14;99835.69;;;18.36;73.11
50368;BME280;36281;34.132;-118.018;2022-07-03T09:57:47;99839.44;;;18.30;73.60
50368;BME280;36281;34.132;-118.018;2022-07-03T10:00:27;99838.59;;;18.24;73.47
50368;BME280;36281;34.132;-118.018;2022-07-03T10:03:00;99846.13;;;18.32;73.08
50368;BME280;36281;34.132;-118.018;2022-07-03T10:05:31;99842.38;;;18.33;72.50
50368;BME280;36281;34.132;-118.018;2022-07-03T10:08:02;99848.53;;;18.29;73.24
50368;BME280;36281;34.132;-118.018;2022-07-03T10:10:32;99846.56;;;18.09;73.89
50368;BME280;36281;34.132;-118.018;2022-07-03T10:13:02;99849.25;;;18.14;73.98
50368;BME280;36281;34.132;-118.018;2022-07-03T10:15:32;99856.00;;;18.22;73.48
50368;BME280;36281;34.132;-118.018;2022-07-03T10:18:06;99855.19;;;18.16;73.47
50368;BME280;36281;34.132;-118.018;2022-07-03T10:20:38;99849.56;;;18.18;73.31
50368;BME280;36281;34.132;-118.018;2022-07-03T10:23:07;99858.13;;;18.20;73.61
50368;BME280;36281;34.132;-118.018;2022-07-03T10:25:40;99856.53;;;18.19;73.99
50368;BME280;36281;34.132;-118.018;2022-07-03T10:28:12;99859.16;;;18.08;73.83
50368;BME280;36281;34.132;-118.018;2022-07-03T10:30:43;99863.41;;;18.04;73.99
50368;BME280;36281;34.132;-118.018;2022-07-03T10:33:14;99860.25;;;18.13;73.59
50368;BME280;36281;34.132;-118.018;2022-07-03T10:35:48;99870.97;;;18.13;73.62
50368;BME280;36281;34.132;-118.018;2022-07-03T10:38:30;99864.00;;;18.12;73.79
50368;BME280;36281;34.132;-118.018;2022-07-03T10:41:07;99854.56;;;17.99;74.33
50368;BME280;36281;34.132;-118.018;2022-07-03T10:44:01;99859.66;;;17.95;75.02
50368;BME280;36281;34.132;-118.018;2022-07-03T10:46:49;99861.00;;;17.98;74.86
50368;BME280;36281;34.132;-118.018;2022-07-03T10:49:27;99861.75;;;17.93;74.94
50368;BME280;36281;34.132;-118.018;2022-07-03T10:51:57;99865.25;;;17.94;75.24
50368;BME280;36281;34.132;-118.018;2022-07-03T10:54:28;99862.09;;;18.02;75.32
50368;BME280;36281;34.132;-118.018;2022-07-03T10:59:59;99867.75;;;18.05;75.05
50368;BME280;36281;34.132;-118.018;2022-07-03T11:02:34;99865.84;;;18.01;75.44
50368;BME280;36281;34.132;-118.018;2022-07-03T11:05:24;99865.88;;;18.06;75.01
50368;BME280;36281;34.132;-118.018;2022-07-03T11:08:12;99865.31;;;18.09;75.12
50368;BME280;36281;34.132;-118.018;2022-07-03T11:10:42;99862.38;;;18.05;75.05
50368;BME280;36281;34.132;-118.018;2022-07-03T11:13:16;99861.22;;;17.86;75.64
50368;BME280;36281;34.132;-118.018;2022-07-03T11:15:46;99845.81;;;17.71;76.30
50368;BME280;36281;34.132;-118.018;2022-07-03T11:18:18;99857.34;;;17.72;76.74
50368;BME280;36281;34.132;-118.018;2022-07-03T11:21:20;99861.03;;;17.61;77.44
50368;BME280;36281;34.132;-118.018;2022-07-03T11:24:18;99861.00;;;17.55;77.74
50368;BME280;36281;34.132;-118.018;2022-07-03T11:27:20;99865.84;;;17.64;77.57
50368;BME280;36281;34.132;-118.018;2022-07-03T11:29:52;99862.13;;;17.70;77.39
50368;BME280;36281;34.132;-118.018;2022-07-03T11:32:46;99863.19;;;17.69;77.38
50368;BME280;36281;34.132;-118.018;2022-07-03T11:35:45;99864.88;;;17.75;77.11
50368;BME280;36281;34.132;-118.018;2022-07-03T11:38:18;99876.84;;;17.67;77.53
50368;BME280;36281;34.132;-118.018;2022-07-03T11:40:49;99873.97;;;17.74;77.10
50368;BME280;36281;34.132;-118.018;2022-07-03T11:43:19;99871.31;;;17.79;77.17
50368;BME280;36281;34.132;-118.018;2022-07-03T11:45:49;99875.91;;;17.83;77.23
50368;BME280;36281;34.132;-118.018;2022-07-03T11:48:20;99874.59;;;17.86;76.92
50368;BME280;36281;34.132;-118.018;2022-07-03T11:50:50;99875.63;;;17.80;77.32
50368;BME280;36281;34.132;-118.018;2022-07-03T11:53:26;99876.66;;;17.74;77.79
50368;BME280;36281;34.132;-118.018;2022-07-03T11:55:57;99883.66;;;17.80;77.83
50368;BME280;36281;34.132;-118.018;2022-07-03T11:58:40;99889.91;;;17.91;77.59
50368;BME280;36281;34.132;-118.018;2022-07-03T12:01:10;99890.72;;;17.96;77.40
50368;BME280;36281;34.132;-118.018;2022-07-03T12:03:39;99885.63;;;17.95;77.88
50368;BME280;36281;34.132;-118.018;2022-07-03T12:06:08;99888.63;;;18.03;77.97
50368;BME280;36281;34.132;-118.018;2022-07-03T12:08:39;99877.56;;;17.95;77.93
50368;BME280;36281;34.132;-118.018;2022-07-03T12:11:10;99892.94;;;18.09;77.91
50368;BME280;36281;34.132;-118.018;2022-07-03T12:13:40;99895.63;;;18.15;77.97
50368;BME280;36281;34.132;-118.018;2022-07-03T12:16:10;99898.63;;;18.23;77.75
50368;BME280;36281;34.132;-118.018;2022-07-03T12:18:47;99895.16;;;18.23;77.48
50368;BME280;36281;34.132;-118.018;2022-07-03T12:21:17;99892.78;;;18.31;77.30
50368;BME280;36281;34.132;-118.018;2022-07-03T12:23:50;99893.88;;;18.36;77.30
50368;BME280;36281;34.132;-118.018;2022-07-03T12:26:29;99892.75;;;18.26;77.55
50368;BME280;36281;34.132;-118.018;2022-07-03T12:29:00;99889.00;;;18.27;77.51
50368;BME280;36281;34.132;-118.018;2022-07-03T12:31:30;99904.06;;;18.39;77.42
50368;BME280;36281;34.132;-118.018;2022-07-03T12:34:00;99900.03;;;18.36;77.54
50368;BME280;36281;34.132;-118.018;2022-07-03T12:36:29;99901.91;;;18.30;77.42
50368;BME280;36281;34.132;-118.018;2022-07-03T12:39:00;99900.06;;;18.41;77.16
50368;BME280;36281;34.132;-118.018;2022-07-03T12:41:30;99908.09;;;18.36;77.12
50368;BME280;36281;34.132;-118.018;2022-07-03T12:44:00;99907.03;;;18.42;77.25
50368;BME280;36281;34.132;-118.018;2022-07-03T12:46:34;99907.59;;;18.49;77.16
50368;BME280;36281;34.132;-118.018;2022-07-03T12:49:08;99908.97;;;18.57;76.88
50368;BME280;36281;34.132;-118.018;2022-07-03T12:51:39;99906.00;;;18.53;76.52
50368;BME280;36281;34.132;-118.018;2022-07-03T12:54:11;99902.53;;;18.58;76.53
50368;BME280;36281;34.132;-118.018;2022-07-03T12:56:42;99897.72;;;18.60;76.52
50368;BME280;36281;34.132;-118.018;2022-07-03T12:59:26;99909.50;;;18.59;76.82
50368;BME280;36281;34.132;-118.018;2022-07-03T13:02:03;99900.88;;;18.47;77.14
50368;BME280;36281;34.132;-118.018;2022-07-03T13:04:34;99904.38;;;18.52;76.61